Terminal Aerodrome Forecast
Issued by NWS Duluth, MN

Home | Current Version | Previous Version | Text Only | Print | Product List | Glossary On
Versions: 1 2 3 4 5 6 7 8 9 10 11 12 13 14 15 16 17 18 19 20 21 22 23 24 25 26 27 28 29
562
FTUS43 KDLH 070539
TAFDLH
TAF
KDLH 070539Z 0706/0806 22012KT P6SM VCSH OVC040 WS020/27035KT
      TEMPO 0706/0708 2SM -SN BKN008 OVC012
     FM071200 25014KT 5SM -SN BR OVC015
     FM071500 27014KT 3SM -SN BR OVC010
     FM072300 31016G28KT 2SM -SN OVC010=

USA.gov is the U.S. government's official web portal to all federal, state and local government web resources and services.